SSEC Globe Logo

Space Science and Engineering Center

Regional Terminal Forecasts

TAF KMSN 190523Z 1906/2006 VRB02KT P6SM SKC FM191200 VRB02KT
     P6SM FEW035 FM191700 VRB04KT P6SM SCT060 FM192200
     VRB04KT P6SM BKN240 FM200500 11005KT P6SM BKN090=
KMKE 190523Z 1906/2012 VRB04KT P6SM SKC FM192000 17005KT
     P6SM SCT220 FM200000 16005KT P6SM BKN200 FM200600
     13005KT P6SM BKN100 FM201100 10011KT P6SM OVC060=
KGRB 190520Z 1906/2006 25004KT P6SM SCT250 FM191900 21007KT
     P6SM SCT250 FM200400 19004KT P6SM BKN090=
KAUW 190520Z 1906/2006 30003KT P6SM SCT200 FM191500 24006KT
     P6SM SCT200 FM192200 18004KT P6SM BKN200 FM200300
     14004KT P6SM BKN080=
KEAU 190520Z 1906/2006 VRB04KT P6SM BKN150 FM191200 21004KT
     P6SM SCT250 FM192300 19004KT P6SM BKN050 OVC100
     FM200400 14004KT P6SM OVC050=
TAF AMD KLSE 190541Z 1906/2006 00000KT 4SM BR SKC TEMPO
     1906/1909 1/2SM FG FM191300 VRB03KT P6SM SCT250
     FM192300 14005KT P6SM BKN120=
KDBQ 190520Z 1906/2006 VRB03KT P6SM SKC FM191000 VRB03KT
     P6SM SCT060 FM192000 08007KT P6SM OVC100=
TAF KRFD 190524Z 1906/2006 VRB02KT P6SM FEW030 FM191700
     13006KT P6SM SCT035 BKN200 FM200300 09009KT P6SM SCT035
     OVC100=
KORD 190524Z 1906/2012 31005KT P6SM SCT025 BKN035 FM191100
     VRB04KT P6SM SCT030 SCT250 FM191800 11006KT P6SM SCT035
     BKN200 FM200300 10009KT P6SM SCT035 OVC100 FM200900
     10012KT 1 1/2SM -SN OVC030=